LFTW

Nîmes-Arles-Camargue Airport

Airport
ICAO code
LFTW
IATA Code
FNI
Summary
ICAO Region
EUR
ICAO Territory
Location

, Languedoc-Roussillon

Serving
Nimes
Elevation
309 ft
Coordinates
43° 45' 27" N , 4° 24' 59" E
Metar
Observation
LFTW 030330Z AUTO 04005KT 8000 ///TCU 05/04 Q1010 TEMPO 4000 RA BKN009 OVC033
Station
Nimes / Garons
Date/Time
2022-12-03 03:30:00
Wind direction
40°
Wind speed
05 kts
Lowest cloud amount
broken clouds
Temperature
5°C
Dew point
4°C
Humidity
93%
QNH
1010 hPa
Weather condition
n/a

Runways

Designator Length Width Surface Rops
18/36 2440 45 CON Yes/Yes

Airport map

Aerial View

SKYbrary Partners:

Safety knowledge contributed by: